Lawton Fort Sill Regional Airport
KLAW : rendu visible

Aérodrome :











RETROUVEZ-NOUS SUR...

 
LOGIN :

S'inscrire | Disclaimer

   EN    FR    IT 

 









Légende :    VFR   VFR Marginal   IFR   IFR Intensif   IFR Très Intensif
Visi : 
Plafond : 
>= 8 km
>= 3000ft
5 à 8 km
1000 à 3000 ft
1500m à 5 km
500 à 1000 ft
800 à 1500m
200 à 500 ft
< 800m
< 200 ft
Symboles :   Orages  Brouillard  Fortes neiges  Fortes précipitations  Vent > 20 kt






- Altitude de l'aérodrome : 1110 ft


KLAW - Lawton Fort Sill Regional

DERNIER METAR :
  • 200253Z AUTO 00000KT 10SM CLR 02/M03 A3053 RMK AO2 SLP349 T00171028 51011

METARs EXPIRÉS :
  • 200153Z AUTO 00000KT 10SM CLR 02/M02 A3052 RMK AO2 SLP347 T00171017
  • 200053Z AUTO 28003KT 10SM CLR 04/M03 A3051 RMK AO2 SLP343 T00391033

TAF KLAW
Valide du 20 à 00h jusqu'au 21 à 00h UTC


192334Z 2000/2024 00000KT P6SM BKN200
FM201700 19007KT P6SM SKC



MET'MAP, la Météo Aéronautique d'un coup d'oeil ! - Copyright ORBIFLY Décembre 2007 - Disclaimer

ORBIFLY MET'MAP TEAM :

Programmation & Développement : Alexandra Zaïnal
Sur une idée originale de : Baudouin d'Aumeries
Assistance à la programmation : Marc-Olivier Méhu
Soutien technique & logistique : Manuel Goepfert

Contact : metmap@orbifly.com




SOURCES & CREDITS :

   NOAA       Earth
Advisory